Time;durP1;ratioP1;P1;durP2;ratioP2;P2;SDS_P1;SDS_P2;PMS_P1;PMS_P2;Temp;Humidity;BMP_temperature;BMP_pressure;BME280_temperature;BME280_humidity;BME280_pressure;Samples;Min_cycle;Max_cycle;Signal;HPM_P1;HPM_P2
2023/04/02 00:00:09;;;;;;;2.35;2.15;;;9.00;99.90;;;;;;6277010;22;20190;-72
2023/04/02 00:02:57;;;;;;;2.20;2.10;;;9.10;99.90;;;;;;6278552;22;20235;-72
2023/04/02 00:05:33;;;;;;;2.20;2.10;;;9.00;99.90;;;;;;6278647;22;20164;-72
2023/04/02 00:08:08;;;;;;;2.97;2.10;;;9.00;99.90;;;;;;6279074;22;20133;-72
2023/04/02 00:10:38;;;;;;;2.30;2.15;;;9.10;99.90;;;;;;6278074;22;20180;-72
2023/04/02 00:13:09;;;;;;;2.33;2.13;;;9.10;99.90;;;;;;6277333;22;20168;-72
2023/04/02 00:15:36;;;;;;;2.10;2.00;;;9.10;99.90;;;;;;6278048;22;20449;-72
2023/04/02 00:18:03;;;;;;;2.22;2.03;;;9.20;99.90;;;;;;6277407;22;20161;-72
2023/04/02 00:20:33;;;;;;;2.30;2.08;;;9.20;99.90;;;;;;6277809;22;20264;-72
2023/04/02 00:22:59;;;;;;;4.07;2.30;;;9.30;99.90;;;;;;6276877;22;20149;-72
2023/04/02 00:25:27;;;;;;;2.50;2.30;;;9.30;99.90;;;;;;6278764;22;20153;-72
2023/04/02 00:27:54;;;;;;;2.42;2.25;;;9.30;99.90;;;;;;6276813;22;20153;-72
2023/04/02 00:30:19;;;;;;;2.42;2.30;;;9.30;99.90;;;;;;6278608;22;20157;-72
2023/04/02 00:32:45;;;;;;;2.40;2.20;;;9.20;99.90;;;;;;6278143;22;20248;-72
2023/04/02 00:35:17;;;;;;;2.30;2.20;;;9.20;99.90;;;;;;6276793;22;20163;-72
2023/04/02 00:37:43;;;;;;;2.28;2.17;;;9.20;99.90;;;;;;6278347;22;20168;-72
2023/04/02 00:40:28;;;;;;;2.33;2.22;;;9.20;99.90;;;;;;6277036;22;20226;-72
2023/04/02 00:42:57;;;;;;;5.88;2.70;;;9.10;99.90;;;;;;6279265;22;20156;-72
2023/04/02 00:45:30;;;;;;;3.45;3.10;;;9.10;99.90;;;;;;6276671;22;20164;-72
2023/04/02 00:47:57;;;;;;;3.85;3.60;;;9.00;99.90;;;;;;6276709;22;20175;-72
2023/04/02 00:50:35;;;;;;;4.28;3.97;;;9.00;99.90;;;;;;6278130;22;20160;-72
2023/04/02 00:53:09;;;;;;;3.92;3.72;;;9.00;99.90;;;;;;6278420;22;20152;-72
2023/04/02 00:55:38;;;;;;;4.40;4.10;;;9.00;99.90;;;;;;6276557;22;20156;-72
2023/04/02 00:58:20;;;;;;;4.18;3.88;;;9.00;99.90;;;;;;6278083;22;20586;-72
2023/04/02 01:48:26;;;;;;;4.80;4.50;;;9.10;99.90;;;;;;6125228;23;20230;-74
2023/04/02 01:54:58;;;;;;;5.30;4.97;;;9.10;99.90;;;;;;6091414;23;20164;-73
2023/04/02 02:36:12;;;;;;;4.57;4.28;;;9.40;99.90;;;;;;6154246;23;20143;-73
2023/04/02 02:42:50;;;;;;;5.45;5.00;;;9.20;99.90;;;;;;6124700;23;20548;-73
2023/04/02 03:50:30;;;;;;;;;;;;;;;;;;;;;
2023/04/02 04:46:17;;;;;;;1.45;0.25;;;7.60;99.90;;;;;;6123044;22;20698;-92
2023/04/02 04:48:57;;;;;;;0.30;0.30;;;7.60;99.90;;;;;;6284513;22;20156;-92
2023/04/02 04:51:32;;;;;;;0.25;0.20;;;7.60;99.90;;;;;;6284476;22;20160;-92
2023/04/02 04:53:59;;;;;;;0.30;0.30;;;7.50;99.90;;;;;;6284956;22;20156;-92
2023/04/02 04:56:29;;;;;;;0.22;0.22;;;7.40;99.90;;;;;;6311247;22;20278;-92
2023/04/02 04:59:01;;;;;;;0.10;0.10;;;7.40;99.90;;;;;;6283421;22;20213;-92
2023/04/02 05:01:47;;;;;;;1.85;0.32;;;7.40;99.90;;;;;;6284306;22;20219;-92
2023/04/02 05:04:25;;;;;;;0.30;0.30;;;7.40;99.90;;;;;;6284583;22;20598;-93
2023/04/02 05:07:08;;;;;;;0.73;0.73;;;7.50;99.90;;;;;;6284410;22;20203;-92
2023/04/02 05:10:01;;;;;;;0.90;0.90;;;7.40;99.90;;;;;;6283742;22;20144;-92
2023/04/02 05:12:56;;;;;;;1.38;1.38;;;7.40;99.90;;;;;;6284400;22;20160;-92
2023/04/02 05:15:45;;;;;;;2.10;1.70;;;7.40;99.90;;;;;;6250987;22;20180;-92
2023/04/02 05:18:23;;;;;;;2.97;2.70;;;7.40;99.90;;;;;;6284269;22;20153;-92
2023/04/02 05:21:06;;;;;;;2.80;2.60;;;7.30;99.90;;;;;;6310753;22;20221;-92
2023/04/02 05:23:41;;;;;;;4.25;3.85;;;7.30;99.90;;;;;;6284409;22;20237;-92
2023/04/02 05:26:40;;;;;;;4.03;3.63;;;7.30;99.90;;;;;;6283650;22;20176;-92
2023/04/02 05:29:21;;;;;;;3.95;3.47;;;7.30;99.90;;;;;;6310993;22;20231;-92
2023/04/02 05:31:54;;;;;;;23.58;13.85;;;7.30;99.90;;;;;;6283717;22;20148;-92
2023/04/02 05:34:24;;;;;;;5.22;4.72;;;7.30;99.90;;;;;;6284137;22;20168;-92
2023/04/02 05:36:50;;;;;;;4.90;3.72;;;7.20;99.90;;;;;;6283544;22;20191;-92
2023/04/02 05:39:21;;;;;;;5.43;4.07;;;7.10;99.90;;;;;;6284213;22;20493;-92
2023/04/02 05:41:47;;;;;;;3.97;3.35;;;7.00;99.90;;;;;;6284010;22;20184;-92
2023/04/02 05:45:08;;;;;;;1.02;0.95;;;7.00;99.90;;;;;;6284666;22;20156;-92
2023/04/02 05:47:39;;;;;;;1.08;0.90;;;6.90;99.90;;;;;;6212670;22;20195;-92
2023/04/02 05:50:11;;;;;;;1.92;0.73;;;6.90;99.90;;;;;;6283630;22;20152;-92
2023/04/02 05:52:42;;;;;;;1.30;0.70;;;6.90;99.90;;;;;;6283185;22;20156;-92
2023/04/02 05:55:11;;;;;;;0.80;0.80;;;6.90;99.90;;;;;;6284019;22;20151;-92
2023/04/02 05:57:49;;;;;;;0.68;0.60;;;6.90;99.90;;;;;;6283112;22;20172;-93
2023/04/02 06:00:26;;;;;;;0.85;0.85;;;6.80;99.90;;;;;;6283378;22;20186;-92
2023/04/02 06:03:00;;;;;;;0.85;0.80;;;6.90;99.90;;;;;;6283545;22;20144;-92
2023/04/02 06:05:34;;;;;;;0.80;0.80;;;6.80;99.90;;;;;;6286715;22;20147;-92
2023/04/02 06:08:19;;;;;;;0.75;0.70;;;6.80;99.90;;;;;;6286182;22;20178;-92
2023/04/02 06:11:00;;;;;;;2.30;0.90;;;6.90;99.90;;;;;;6285918;22;20149;-92
2023/04/02 06:13:27;;;;;;;1.40;0.60;;;6.90;99.90;;;;;;6287386;22;20156;-92
2023/04/02 06:15:52;;;;;;;0.70;0.70;;;6.90;99.90;;;;;;6287594;22;20239;-92
2023/04/02 06:18:22;;;;;;;1.65;0.93;;;6.80;99.90;;;;;;6281993;22;20265;-92
2023/04/02 06:20:48;;;;;;;0.60;0.60;;;6.60;99.90;;;;;;6280885;22;20188;-92
2023/04/02 06:23:23;;;;;;;1.00;0.93;;;6.60;99.90;;;;;;6282825;22;20153;-92
2023/04/02 06:26:05;;;;;;;5.20;1.13;;;6.60;99.90;;;;;;6279789;22;20202;-92
2023/04/02 06:28:39;;;;;;;1.88;0.70;;;6.60;99.90;;;;;;6281946;22;20152;-92
2023/04/02 06:31:12;;;;;;;1.65;0.55;;;6.50;99.90;;;;;;6282555;22;20183;-92
2023/04/02 06:33:37;;;;;;;5.22;0.68;;;6.50;99.90;;;;;;6283439;22;20152;-92
2023/04/02 06:36:04;;;;;;;2.67;0.80;;;6.50;99.90;;;;;;6283519;22;20682;-93
2023/04/02 06:38:31;;;;;;;0.47;0.47;;;6.60;99.90;;;;;;6282049;22;20161;-92
2023/04/02 06:41:04;;;;;;;0.47;0.47;;;6.70;99.90;;;;;;6281568;22;20216;-93
2023/04/02 06:43:48;;;;;;;0.68;0.68;;;6.70;99.90;;;;;;6281084;22;20237;-92
2023/04/02 06:46:20;;;;;;;0.50;0.50;;;6.70;99.90;;;;;;6280869;22;20173;-92
2023/04/02 06:48:49;;;;;;;0.52;0.50;;;6.70;99.90;;;;;;6281295;22;20153;-92
2023/04/02 06:51:17;;;;;;;0.70;0.70;;;6.80;99.90;;;;;;6283073;22;20160;-93
2023/04/02 06:53:47;;;;;;;0.70;0.70;;;6.90;99.90;;;;;;6282158;22;20165;-92
2023/04/02 06:56:40;;;;;;;2.30;0.75;;;6.90;99.90;;;;;;6281880;22;20216;-93
2023/04/02 06:59:07;;;;;;;0.70;0.70;;;6.90;99.90;;;;;;6282123;22;20177;-92
2023/04/02 07:01:47;;;;;;;0.60;0.60;;;6.90;99.90;;;;;;6282782;22;20181;-92
2023/04/02 07:04:14;;;;;;;2.22;0.60;;;7.00;99.90;;;;;;6281243;22;20145;-91
2023/04/02 07:06:40;;;;;;;0.88;0.80;;;6.90;99.90;;;;;;6279948;22;20176;-92
2023/04/02 07:09:06;;;;;;;0.50;0.50;;;6.90;99.90;;;;;;6281930;22;20202;-92
2023/04/02 07:11:31;;;;;;;0.63;0.60;;;6.80;99.90;;;;;;6284392;22;20221;-93
2023/04/02 07:13:57;;;;;;;0.70;0.70;;;6.70;99.90;;;;;;6286521;22;20160;-93
2023/04/02 07:16:25;;;;;;;0.73;0.47;;;6.50;99.90;;;;;;6287549;22;20199;-93
2023/04/02 07:18:54;;;;;;;0.52;0.52;;;6.50;99.90;;;;;;6313811;22;20171;-93
2023/04/02 07:21:20;;;;;;;0.73;0.60;;;6.40;99.90;;;;;;6320592;22;20180;-93
2023/04/02 07:23:45;;;;;;;0.40;0.40;;;6.60;99.90;;;;;;6288835;22;20152;-93
2023/04/02 07:26:22;;;;;;;0.70;0.70;;;6.70;99.90;;;;;;6288341;22;20259;-92
2023/04/02 07:28:48;;;;;;;0.50;0.50;;;6.80;99.90;;;;;;6290337;22;20167;-92
2023/04/02 07:31:16;;;;;;;0.50;0.50;;;7.00;99.90;;;;;;6287266;22;20168;-92
2023/04/02 07:33:43;;;;;;;0.40;0.40;;;7.00;99.90;;;;;;6286418;22;20180;-92
2023/04/02 07:36:16;;;;;;;0.28;0.28;;;7.10;99.90;;;;;;6286290;22;20183;-92
2023/04/02 07:38:42;;;;;;;0.82;0.82;;;7.20;99.90;;;;;;6285696;22;20201;-92
2023/04/02 07:41:08;;;;;;;0.60;0.60;;;7.30;99.90;;;;;;6285616;22;20215;-92
2023/04/02 07:43:34;;;;;;;2.83;2.65;;;7.40;99.90;;;;;;6285037;22;20157;-92
2023/04/02 07:46:00;;;;;;;1.20;1.20;;;7.50;99.90;;;;;;6285487;22;20172;-91
2023/04/02 07:48:28;;;;;;;0.73;0.73;;;7.60;99.90;;;;;;6291171;22;20169;-92
2023/04/02 07:50:53;;;;;;;0.80;0.80;;;7.70;99.90;;;;;;6285022;22;20239;-92
2023/04/02 07:53:28;;;;;;;0.88;0.88;;;7.80;99.90;;;;;;6287955;22;20153;-92
2023/04/02 07:55:55;;;;;;;0.70;0.70;;;7.80;99.90;;;;;;6286969;22;20180;-93
2023/04/02 07:58:21;;;;;;;0.65;0.50;;;8.00;99.90;;;;;;6285566;22;20160;-92
2023/04/02 08:00:46;;;;;;;0.43;0.43;;;8.10;99.90;;;;;;6284912;22;20180;-92
2023/04/02 08:03:13;;;;;;;0.30;0.30;;;8.10;99.90;;;;;;6288553;22;20162;-92
2023/04/02 08:05:42;;;;;;;0.35;0.35;;;8.10;99.90;;;;;;6286619;22;20184;-90
2023/04/02 08:08:07;;;;;;;0.90;0.90;;;8.10;99.90;;;;;;6316488;22;20179;-92
2023/04/02 08:10:33;;;;;;;0.60;0.60;;;8.10;99.90;;;;;;6284938;22;20148;-92
2023/04/02 08:12:59;;;;;;;0.65;0.65;;;8.10;99.90;;;;;;6285281;22;20175;-92
2023/04/02 08:15:25;;;;;;;0.40;0.40;;;8.20;99.90;;;;;;6284867;22;20156;-92
2023/04/02 08:17:50;;;;;;;0.60;0.60;;;8.40;99.90;;;;;;6279248;22;20172;-92
2023/04/02 08:20:20;;;;;;;1.13;0.60;;;8.40;99.90;;;;;;6280066;22;20160;-92
2023/04/02 08:22:46;;;;;;;0.65;0.65;;;8.50;99.90;;;;;;6281098;22;20165;-92
2023/04/02 08:25:12;;;;;;;1.60;1.00;;;8.50;99.90;;;;;;6280109;22;20179;-92
2023/04/02 08:27:38;;;;;;;1.40;1.30;;;8.60;99.90;;;;;;6279301;22;20238;-92
2023/04/02 08:30:06;;;;;;;1.05;1.05;;;8.60;99.90;;;;;;6280287;22;20164;-91
2023/04/02 08:32:32;;;;;;;1.20;1.20;;;8.20;99.90;;;;;;6279060;22;20152;-92
2023/04/02 08:34:58;;;;;;;0.77;0.77;;;8.00;99.90;;;;;;6280001;22;20168;-91
2023/04/02 08:37:23;;;;;;;4.03;0.80;;;8.00;99.90;;;;;;6279899;22;20177;-92
2023/04/02 08:39:49;;;;;;;0.70;0.70;;;7.90;99.90;;;;;;6278120;22;20157;-92
2023/04/02 08:42:30;;;;;;;0.90;0.90;;;8.00;99.90;;;;;;6282611;22;20200;-92
2023/04/02 08:45:33;;;;;;;0.75;0.75;;;7.90;99.90;;;;;;6279102;22;20231;-92
2023/04/02 08:48:01;;;;;;;0.60;0.60;;;7.80;99.90;;;;;;6279574;22;20157;-92
2023/04/02 08:50:34;;;;;;;1.10;1.10;;;7.90;99.90;;;;;;6279246;22;20157;-92
2023/04/02 11:19:54;;;;;;;;;;;;;;;;;;;;;
2023/04/02 11:32:41;;;;;;;2.03;1.92;;;7.70;99.90;;;;;;6249389;23;20171;-73
2023/04/02 11:35:34;;;;;;;2.20;2.10;;;6.90;99.90;;;;;;6252267;22;20165;-74
2023/04/02 11:38:21;;;;;;;2.20;2.10;;;6.60;99.90;;;;;;6251613;23;20203;-73
2023/04/02 11:40:59;;;;;;;5.97;5.47;;;6.70;99.90;;;;;;6250705;23;20231;-73
2023/04/02 11:43:46;;;;;;;3.88;3.58;;;6.90;99.90;;;;;;6254399;22;20156;-73
2023/04/02 11:46:50;;;;;;;4.20;3.90;;;7.30;99.90;;;;;;6252286;22;20196;-73
2023/04/02 11:49:35;;;;;;;2.20;2.10;;;7.50;99.90;;;;;;6252591;23;20145;-73
2023/04/02 11:52:45;;;;;;;3.70;2.75;;;7.70;99.90;;;;;;6252858;23;20145;-73
2023/04/02 11:55:50;;;;;;;3.20;1.70;;;7.80;99.90;;;;;;6236221;23;20165;-73
2023/04/02 11:58:42;;;;;;;2.08;1.98;;;7.90;99.90;;;;;;6190098;23;20209;-74
2023/04/02 12:01:33;;;;;;;1.60;1.60;;;8.10;99.90;;;;;;6253145;22;20613;-73
2023/04/02 12:04:24;;;;;;;1.98;1.83;;;8.20;99.90;;;;;;6253433;23;20450;-73
2023/04/02 12:07:11;;;;;;;2.00;1.90;;;8.20;99.90;;;;;;6252429;22;20173;-74
2023/04/02 12:13:36;;;;;;;2.80;2.60;;;8.00;99.90;;;;;;6247927;23;20222;-72
2023/04/02 12:16:21;;;;;;;2.50;2.30;;;8.10;99.90;;;;;;6247804;22;20585;-72
2023/04/02 12:19:00;;;;;;;3.85;3.55;;;7.80;99.90;;;;;;6248429;22;20138;-72
2023/04/02 12:21:28;;;;;;;8.32;7.53;;;7.80;99.90;;;;;;6246239;23;20184;-72
2023/04/02 12:23:56;;;;;;;5.82;5.15;;;7.80;99.90;;;;;;6246213;23;20154;-72
2023/04/02 12:26:36;;;;;;;8.73;7.60;;;8.00;99.90;;;;;;6246509;22;20178;-72
2023/04/02 12:29:15;;;;;;;7.30;6.70;;;7.90;99.90;;;;;;6246645;23;20153;-72
2023/04/02 12:31:46;;;;;;;5.60;5.07;;;7.80;99.90;;;;;;6246225;23;20161;-72
2023/04/02 12:34:17;;;;;;;4.50;4.10;;;7.80;99.90;;;;;;6247103;23;20491;-72
2023/04/02 12:37:03;;;;;;;3.30;3.10;;;7.70;99.90;;;;;;6246767;22;20566;-72
2023/04/02 12:40:19;;;;;;;2.58;2.38;;;7.70;99.90;;;;;;6246168;23;20150;-72
2023/04/02 12:42:45;;;;;;;4.45;4.05;;;7.70;99.90;;;;;;6246103;23;20169;-72
2023/04/02 12:45:21;;;;;;;3.70;3.30;;;7.80;99.90;;;;;;6246645;23;20165;-72
2023/04/02 12:47:57;;;;;;;3.25;3.05;;;8.00;99.90;;;;;;6247106;22;20176;-72
2023/04/02 12:50:23;;;;;;;3.13;2.90;;;8.10;99.90;;;;;;6246724;23;20229;-73
2023/04/02 12:52:52;;;;;;;3.05;2.80;;;8.10;99.90;;;;;;6245928;23;20185;-73
2023/04/02 12:55:23;;;;;;;3.22;3.03;;;8.10;99.90;;;;;;6246174;23;20672;-79
2023/04/02 12:58:26;;;;;;;2.78;2.58;;;8.10;99.90;;;;;;6245940;23;20142;-72
2023/04/02 13:01:07;;;;;;;5.20;4.22;;;8.30;99.90;;;;;;6246938;23;20201;-72
2023/04/02 13:03:32;;;;;;;2.90;2.70;;;8.60;99.90;;;;;;6246837;23;20229;-72
2023/04/02 13:06:36;;;;;;;2.63;2.42;;;8.80;99.90;;;;;;6246122;22;20197;-72
2023/04/02 13:09:05;;;;;;;3.80;3.50;;;8.90;99.90;;;;;;6247211;23;20150;-72
2023/04/02 13:12:02;;;;;;;4.05;3.30;;;8.80;99.90;;;;;;6247015;23;20160;-72
2023/04/02 13:14:40;;;;;;;4.45;3.22;;;8.50;99.60;;;;;;6246848;23;20203;-72
2023/04/02 13:17:55;;;;;;;4.00;2.70;;;8.50;99.90;;;;;;6245854;22;20260;-72
2023/04/02 13:20:39;;;;;;;5.50;5.00;;;8.60;99.90;;;;;;6261705;22;20248;-72
2023/04/02 13:23:32;;;;;;;4.30;3.90;;;8.70;99.90;;;;;;6253670;22;20168;-72
2023/04/02 13:26:23;;;;;;;3.25;2.95;;;8.70;99.50;;;;;;6252321;22;20180;-72
2023/04/02 13:28:55;;;;;;;4.53;3.25;;;8.70;99.00;;;;;;6237061;23;20161;-73
2023/04/02 13:31:21;;;;;;;6.35;3.95;;;8.50;99.00;;;;;;6249707;23;20269;-73
2023/04/02 13:33:50;;;;;;;4.13;3.33;;;8.40;99.20;;;;;;6251457;23;20165;-73
2023/04/02 13:36:21;;;;;;;2.83;2.65;;;8.40;99.90;;;;;;6250843;22;20254;-73
2023/04/02 13:38:47;;;;;;;3.00;2.60;;;8.50;99.60;;;;;;6249284;23;20176;-74
2023/04/02 13:42:07;;;;;;;3.38;3.00;;;8.40;98.20;;;;;;6248518;23;20626;-73
2023/04/02 13:44:38;;;;;;;2.90;2.70;;;8.30;99.00;;;;;;6186009;23;20176;-73
2023/04/02 13:47:03;;;;;;;2.80;2.60;;;8.10;99.00;;;;;;6251249;22;20501;-74
2023/04/02 13:49:30;;;;;;;2.90;2.47;;;8.10;99.20;;;;;;6249604;23;20154;-73
2023/04/02 13:52:01;;;;;;;2.47;2.05;;;7.80;99.10;;;;;;6249928;23;20188;-73
2023/04/02 13:54:48;;;;;;;2.65;2.45;;;7.90;99.40;;;;;;6251159;23;20169;-73
2023/04/02 13:57:13;;;;;;;2.83;2.25;;;8.00;99.10;;;;;;6250505;22;20174;-73
2023/04/02 13:59:39;;;;;;;27.50;17.60;;;7.90;99.00;;;;;;6250242;23;20495;-73
2023/04/02 14:02:09;;;;;;;14.38;11.40;;;7.60;98.40;;;;;;6247496;23;20185;-73
2023/04/02 14:04:41;;;;;;;13.55;11.02;;;6.70;98.60;;;;;;6248051;22;20154;-73
2023/04/02 14:07:15;;;;;;;4.40;3.85;;;6.50;99.90;;;;;;6246529;22;20188;-73
2023/04/02 14:09:59;;;;;;;3.85;3.13;;;6.50;99.90;;;;;;6247441;23;20162;-73
2023/04/02 14:13:00;;;;;;;5.35;4.70;;;6.60;99.90;;;;;;6248735;23;20150;-73
2023/04/02 14:15:49;;;;;;;2.78;2.58;;;6.80;99.90;;;;;;6249686;22;20164;-73
2023/04/02 14:18:35;;;;;;;4.13;3.72;;;7.00;99.90;;;;;;6246699;23;20150;-72
2023/04/02 14:21:10;;;;;;;4.38;3.60;;;7.00;99.20;;;;;;6247065;22;20244;-73
2023/04/02 14:23:58;;;;;;;21.25;16.95;;;7.10;99.80;;;;;;6246862;23;20133;-83
2023/04/02 14:26:42;;;;;;;7.53;6.82;;;6.90;99.20;;;;;;6245690;22;20197;-73
2023/04/02 14:29:15;;;;;;;8.73;7.80;;;6.80;99.60;;;;;;6242393;23;20145;-72
2023/04/02 14:32:02;;;;;;;9.90;8.90;;;6.80;99.80;;;;;;6243265;23;20227;-73
2023/04/02 14:35:09;;;;;;;28.70;25.70;;;6.70;99.40;;;;;;6244101;23;20173;-72
2023/04/02 14:38:11;;;;;;;15.98;14.35;;;6.70;99.30;;;;;;6247251;22;20173;-72
2023/04/02 14:40:48;;;;;;;15.05;12.23;;;6.70;99.70;;;;;;6234893;23;20153;-72
2023/04/02 14:43:30;;;;;;;20.90;17.40;;;6.80;99.40;;;;;;6247784;23;20220;-73
2023/04/02 14:45:57;;;;;;;4.18;3.78;;;6.90;99.00;;;;;;6248718;22;20200;-73
2023/04/02 14:48:41;;;;;;;2.92;2.70;;;6.90;97.90;;;;;;6247993;23;20174;-73
2023/04/02 14:51:18;;;;;;;3.03;2.83;;;6.90;97.10;;;;;;6245718;23;20154;-73
2023/04/02 14:53:50;;;;;;;3.60;3.10;;;6.60;96.40;;;;;;6247081;23;20230;-73
2023/04/02 14:56:20;;;;;;;3.93;3.50;;;6.30;96.30;;;;;;6245548;22;20181;-72
2023/04/02 14:58:52;;;;;;;5.00;4.50;;;6.10;97.50;;;;;;6245503;23;20514;-72
2023/04/02 15:01:26;;;;;;;4.05;3.40;;;6.00;97.50;;;;;;6247046;22;20220;-73
2023/04/02 15:03:57;;;;;;;6.78;4.95;;;6.20;98.30;;;;;;6246000;23;20542;-73
2023/04/02 15:06:29;;;;;;;4.63;3.57;;;6.40;97.70;;;;;;6246266;22;20208;-73
2023/04/02 15:09:04;;;;;;;5.25;3.65;;;6.20;97.20;;;;;;6246531;23;20199;-73
2023/04/02 15:11:37;;;;;;;3.77;3.47;;;6.10;97.50;;;;;;6247086;22;20216;-73
2023/04/02 15:14:16;;;;;;;4.90;3.43;;;6.00;97.60;;;;;;6245298;23;20152;-73
2023/04/02 15:16:42;;;;;;;3.70;3.40;;;5.60;98.30;;;;;;6246989;22;20246;-73
2023/04/02 15:19:14;;;;;;;4.93;3.77;;;5.60;98.30;;;;;;6245993;23;20229;-73
2023/04/02 15:21:58;;;;;;;6.10;3.93;;;5.60;98.70;;;;;;6245383;23;20178;-73
2023/04/02 15:24:42;;;;;;;4.23;3.80;;;5.70;98.60;;;;;;6246072;23;20150;-73
2023/04/02 15:27:07;;;;;;;5.20;4.70;;;5.80;98.30;;;;;;6246345;22;20184;-73
2023/04/02 15:29:48;;;;;;;4.00;3.60;;;5.90;98.90;;;;;;6246204;23;20150;-73
2023/04/02 15:32:33;;;;;;;4.10;3.80;;;5.80;98.90;;;;;;6274176;22;20149;-74
2023/04/02 15:35:26;;;;;;;7.70;6.20;;;6.00;99.20;;;;;;6247662;23;20231;-72
2023/04/02 15:38:10;;;;;;;6.57;5.90;;;6.00;99.00;;;;;;6244560;23;20233;-72
2023/04/02 15:40:54;;;;;;;4.10;3.78;;;6.10;99.70;;;;;;6246733;22;20228;-72
2023/04/02 15:43:59;;;;;;;3.95;3.50;;;6.20;99.90;;;;;;6245912;23;20173;-72
2023/04/02 15:46:37;;;;;;;4.20;3.80;;;6.10;99.90;;;;;;6244485;22;20173;-72
2023/04/02 15:49:14;;;;;;;15.45;13.82;;;6.10;99.90;;;;;;6245751;23;20184;-72
2023/04/02 15:51:59;;;;;;;4.90;3.85;;;6.10;98.40;;;;;;6247795;23;20176;-72
2023/04/02 15:54:39;;;;;;;4.13;3.70;;;5.80;98.10;;;;;;6245917;23;20160;-71
2023/04/02 15:57:29;;;;;;;4.47;3.63;;;5.80;98.10;;;;;;6244395;22;20177;-72
2023/04/02 16:00:03;;;;;;;4.40;3.63;;;5.70;98.20;;;;;;6244424;23;20158;-71
2023/04/02 16:03:06;;;;;;;4.20;3.80;;;5.70;98.40;;;;;;6246243;22;20172;-71
2023/04/02 16:05:41;;;;;;;3.87;3.50;;;5.20;98.30;;;;;;6244245;22;20233;-71
2023/04/02 16:08:12;;;;;;;4.53;4.10;;;5.10;98.80;;;;;;6246008;22;20221;-71
2023/04/02 16:10:39;;;;;;;3.50;3.20;;;5.10;99.30;;;;;;6246092;23;20189;-73
2023/04/02 16:13:32;;;;;;;4.20;3.40;;;5.10;99.00;;;;;;6247246;23;20153;-73
2023/04/02 16:16:01;;;;;;;3.63;3.30;;;5.10;99.30;;;;;;6247619;22;20181;-73
2023/04/02 16:18:35;;;;;;;5.00;4.50;;;5.00;99.30;;;;;;6246648;23;20184;-73
2023/04/02 16:21:02;;;;;;;5.40;3.60;;;5.10;99.80;;;;;;6248725;23;20299;-73
2023/04/02 16:23:35;;;;;;;6.23;3.47;;;5.10;99.60;;;;;;6248164;22;20146;-73
2023/04/02 16:26:25;;;;;;;8.17;4.90;;;5.20;99.80;;;;;;6246276;22;20237;-73
2023/04/02 16:28:57;;;;;;;5.40;4.67;;;5.40;99.90;;;;;;6247359;23;20146;-73
2023/04/02 16:31:22;;;;;;;5.23;4.17;;;5.50;99.90;;;;;;6248363;23;20160;-73
2023/04/02 16:33:50;;;;;;;4.70;4.30;;;5.40;99.20;;;;;;6248035;23;20232;-73
2023/04/02 16:36:39;;;;;;;4.83;3.50;;;5.20;99.40;;;;;;6248344;22;20189;-73
2023/04/02 16:39:29;;;;;;;4.60;4.10;;;5.20;99.40;;;;;;6246207;23;20154;-73
2023/04/02 16:42:25;;;;;;;4.70;3.20;;;5.00;99.60;;;;;;6247144;23;20174;-73
2023/04/02 16:45:14;;;;;;;4.07;3.67;;;5.10;99.50;;;;;;6247756;22;20192;-73
2023/04/02 16:47:55;;;;;;;5.10;4.00;;;5.10;99.60;;;;;;6246362;22;20177;-73
2023/04/02 16:50:53;;;;;;;6.83;4.27;;;5.20;99.90;;;;;;6247224;23;20145;-73
2023/04/02 16:53:39;;;;;;;9.30;5.87;;;5.30;99.60;;;;;;6246140;23;20586;-73
2023/04/02 16:56:26;;;;;;;7.53;4.73;;;5.30;99.90;;;;;;6247042;22;20231;-73
2023/04/02 16:58:55;;;;;;;6.47;4.77;;;5.40;99.90;;;;;;6245941;23;20146;-73
2023/04/02 17:01:30;;;;;;;4.93;4.13;;;5.40;99.20;;;;;;6245914;23;20188;-73
2023/04/02 17:04:32;;;;;;;3.53;3.23;;;5.40;99.20;;;;;;6248155;22;20142;-73
2023/04/02 17:07:34;;;;;;;7.57;4.90;;;5.30;99.10;;;;;;6247643;22;20165;-73
2023/04/02 17:10:42;;;;;;;5.97;4.93;;;5.20;99.50;;;;;;6245845;23;20157;-73
2023/04/02 17:13:46;;;;;;;7.73;5.17;;;5.30;99.90;;;;;;6130033;23;20258;-73
2023/04/02 17:16:19;;;;;;;4.00;3.60;;;5.30;99.80;;;;;;6246668;22;20173;-73
2023/04/02 17:18:47;;;;;;;6.57;3.73;;;5.20;99.20;;;;;;6245937;23;20181;-73
2023/04/02 17:21:18;;;;;;;6.13;3.30;;;5.20;99.10;;;;;;6246066;23;20181;-73
2023/04/02 17:23:52;;;;;;;3.93;3.63;;;5.00;99.20;;;;;;6245667;23;20168;-72
2023/04/02 17:27:02;;;;;;;6.87;4.13;;;5.00;99.60;;;;;;6246127;22;20184;-72
2023/04/02 17:29:56;;;;;;;5.33;3.93;;;5.00;99.40;;;;;;6247572;23;20589;-73
2023/04/02 17:32:35;;;;;;;4.23;3.20;;;5.00;99.90;;;;;;6245671;23;20149;-72
2023/04/02 17:35:24;;;;;;;3.97;3.40;;;5.00;99.50;;;;;;6245706;23;20223;-72
2023/04/02 17:38:15;;;;;;;4.47;4.07;;;5.00;99.30;;;;;;6226718;23;20166;-72
2023/04/02 17:41:12;;;;;;;5.07;3.63;;;5.00;99.30;;;;;;6245531;23;20571;-72
2023/04/02 17:44:16;;;;;;;4.13;3.43;;;5.10;99.60;;;;;;6245567;23;20154;-72
2023/04/02 17:47:00;;;;;;;6.50;5.77;;;5.10;99.70;;;;;;6245390;22;20173;-72
2023/04/02 17:49:48;;;;;;;6.73;4.53;;;5.10;99.90;;;;;;6245529;23;20138;-73
2023/04/02 17:53:05;;;;;;;4.93;3.57;;;5.10;99.90;;;;;;6246991;23;20142;-72
2023/04/02 17:55:46;;;;;;;10.50;8.37;;;5.10;99.60;;;;;;6245283;22;20150;-73
2023/04/02 17:58:50;;;;;;;8.80;6.80;;;5.10;99.90;;;;;;6247218;23;20162;-72
2023/04/02 18:01:31;;;;;;;4.10;3.50;;;5.20;99.90;;;;;;6184438;23;20699;-72
2023/04/02 18:04:29;;;;;;;3.87;3.50;;;5.10;99.30;;;;;;6247224;23;20140;-73
2023/04/02 18:07:18;;;;;;;3.50;3.20;;;5.20;99.90;;;;;;6196388;22;20253;-72
2023/04/02 18:10:12;;;;;;;3.90;3.60;;;5.20;99.50;;;;;;6247384;23;20161;-78
2023/04/02 18:13:07;;;;;;;7.70;5.17;;;5.10;99.20;;;;;;6261548;23;20163;-73
2023/04/02 18:16:01;;;;;;;5.53;3.90;;;5.20;99.90;;;;;;6203565;22;20167;-73
2023/04/02 18:19:07;;;;;;;3.70;3.43;;;5.20;99.70;;;;;;6245898;23;20153;-73
2023/04/02 18:21:41;;;;;;;4.50;3.07;;;5.20;99.70;;;;;;6245073;23;20196;-73
2023/04/02 18:24:27;;;;;;;5.83;3.77;;;5.10;99.30;;;;;;6244812;23;20176;-72
2023/04/02 18:27:07;;;;;;;3.83;3.53;;;5.10;99.60;;;;;;6242766;22;20201;-73
2023/04/02 18:29:42;;;;;;;5.10;3.13;;;5.10;99.90;;;;;;6242924;23;20230;-73
2023/04/02 18:32:13;;;;;;;3.27;2.97;;;5.20;99.90;;;;;;6244413;23;20169;-73
2023/04/02 18:34:54;;;;;;;3.60;3.30;;;5.30;99.40;;;;;;6242632;23;20177;-73
2023/04/02 18:37:23;;;;;;;4.43;3.00;;;5.20;99.20;;;;;;6244817;22;20223;-73
2023/04/02 18:40:02;;;;;;;4.30;2.97;;;5.30;99.00;;;;;;6244419;23;20163;-74
2023/04/02 18:42:39;;;;;;;3.20;2.90;;;5.10;98.80;;;;;;6244791;23;20181;-74
2023/04/02 18:45:37;;;;;;;6.23;3.30;;;5.00;99.40;;;;;;6244895;23;20184;-74
2023/04/02 18:48:32;;;;;;;4.70;3.33;;;4.90;97.80;;;;;;6246864;23;20174;-73
2023/04/02 18:50:59;;;;;;;4.53;3.80;;;4.80;98.50;;;;;;6196867;23;20165;-73
2023/04/02 18:53:27;;;;;;;13.57;6.93;;;4.60;98.20;;;;;;6246362;22;20161;-73
2023/04/02 18:55:58;;;;;;;3.50;3.20;;;4.50;98.80;;;;;;6245108;22;20178;-73
2023/04/02 18:58:48;;;;;;;3.07;2.80;;;4.50;99.30;;;;;;6245100;23;20161;-73
2023/04/02 19:01:22;;;;;;;6.00;2.50;;;4.40;99.80;;;;;;6235148;23;20273;-73
2023/04/02 19:03:51;;;;;;;3.43;3.13;;;4.30;99.90;;;;;;6245644;23;20176;-73
2023/04/02 19:06:34;;;;;;;4.47;2.80;;;4.20;99.90;;;;;;6244897;22;20273;-73
2023/04/02 19:09:01;;;;;;;4.50;2.60;;;4.10;99.90;;;;;;6245359;23;20176;-73
2023/04/02 19:11:51;;;;;;;3.07;2.80;;;4.10;99.90;;;;;;6244997;23;20188;-73
2023/04/02 19:14:19;;;;;;;3.17;2.67;;;4.10;99.90;;;;;;6244814;23;20153;-73
2023/04/02 19:17:13;;;;;;;2.50;2.30;;;4.10;99.90;;;;;;6244608;22;20181;-73
2023/04/02 19:19:45;;;;;;;3.10;2.40;;;4.10;99.90;;;;;;6245101;23;20280;-73
2023/04/02 19:22:34;;;;;;;4.43;3.33;;;4.20;99.90;;;;;;6244422;23;20173;-73
2023/04/02 19:25:15;;;;;;;2.37;2.17;;;4.30;99.90;;;;;;6188272;23;20153;-73
2023/04/02 19:28:22;;;;;;;3.70;2.77;;;4.30;99.90;;;;;;6241881;22;20184;-73
2023/04/02 19:31:02;;;;;;;3.83;2.90;;;4.30;99.90;;;;;;6245122;23;20205;-73
2023/04/02 19:33:40;;;;;;;5.23;3.40;;;4.30;99.90;;;;;;6245296;23;20199;-73
2023/04/02 19:36:25;;;;;;;4.57;3.57;;;4.40;99.90;;;;;;6244283;22;20215;-73
2023/04/02 19:39:03;;;;;;;9.47;7.10;;;4.40;99.90;;;;;;6245043;23;20146;-73
2023/04/02 19:41:38;;;;;;;9.53;6.80;;;4.50;99.90;;;;;;6246302;22;20178;-73
2023/04/02 19:44:11;;;;;;;23.13;9.40;;;4.60;99.90;;;;;;6243893;23;20153;-73
2023/04/02 19:46:37;;;;;;;9.00;6.53;;;4.60;99.90;;;;;;6245975;22;20324;-73
2023/04/02 19:49:09;;;;;;;5.37;4.83;;;4.70;99.90;;;;;;6244123;23;20157;-73
2023/04/02 19:51:34;;;;;;;6.53;4.70;;;4.60;99.90;;;;;;6247451;23;20169;-73
2023/04/02 19:54:00;;;;;;;5.90;4.50;;;4.50;99.90;;;;;;6246610;23;20166;-73
2023/04/02 19:56:26;;;;;;;12.83;9.03;;;4.60;99.90;;;;;;6246545;22;20181;-73
2023/04/02 19:58:52;;;;;;;8.43;6.10;;;4.60;99.90;;;;;;6248500;22;20156;-73
2023/04/02 20:01:57;;;;;;;8.63;4.30;;;4.70;99.90;;;;;;6247949;22;20182;-73
2023/04/02 20:04:23;;;;;;;8.40;5.07;;;4.60;99.90;;;;;;6247501;22;20141;-73
2023/04/02 20:06:49;;;;;;;5.57;4.40;;;4.60;99.90;;;;;;6247527;22;20173;-73